sensor_id;sensor_type;location;lat;lon;timestamp;temperature;humidity
14409;DHT22;7289;50.706;4.992;2022-12-18T00:02:01;-6.90;99.90
14409;DHT22;7289;50.706;4.992;2022-12-18T00:04:30;-6.90;99.90
14409;DHT22;7289;50.706;4.992;2022-12-18T00:06:58;-6.90;99.90
14409;DHT22;7289;50.706;4.992;2022-12-18T00:09:28;-7.00;99.90
14409;DHT22;7289;50.706;4.992;2022-12-18T00:12:07;-7.00;99.90
14409;DHT22;7289;50.706;4.992;2022-12-18T00:14:41;-7.00;99.90
14409;DHT22;7289;50.706;4.992;2022-12-18T00:17:10;-7.10;99.90
14409;DHT22;7289;50.706;4.992;2022-12-18T00:19:38;-7.10;99.90
14409;DHT22;7289;50.706;4.992;2022-12-18T00:22:06;-7.10;99.90
14409;DHT22;7289;50.706;4.992;2022-12-18T00:24:34;-7.10;99.90
14409;DHT22;7289;50.706;4.992;2022-12-18T00:27:02;-7.20;99.90
14409;DHT22;7289;50.706;4.992;2022-12-18T00:29:32;-7.20;99.90
14409;DHT22;7289;50.706;4.992;2022-12-18T00:32:00;-7.20;99.90
14409;DHT22;7289;50.706;4.992;2022-12-18T00:34:29;-7.30;99.90
14409;DHT22;7289;50.706;4.992;2022-12-18T00:36:57;-7.30;99.90
14409;DHT22;7289;50.706;4.992;2022-12-18T00:39:25;-7.40;99.90
14409;DHT22;7289;50.706;4.992;2022-12-18T00:41:54;-7.40;99.90
14409;DHT22;7289;50.706;4.992;2022-12-18T00:44:41;-7.40;99.90
14409;DHT22;7289;50.706;4.992;2022-12-18T00:47:09;-7.40;99.90
14409;DHT22;7289;50.706;4.992;2022-12-18T00:49:37;-7.50;99.90
14409;DHT22;7289;50.706;4.992;2022-12-18T00:52:05;-7.50;99.90
14409;DHT22;7289;50.706;4.992;2022-12-18T00:54:34;-7.50;99.90
14409;DHT22;7289;50.706;4.992;2022-12-18T00:57:02;-7.60;99.90
14409;DHT22;7289;50.706;4.992;2022-12-18T00:59:30;-7.60;99.90
14409;DHT22;7289;50.706;4.992;2022-12-18T01:02:00;-7.60;99.90
14409;DHT22;7289;50.706;4.992;2022-12-18T01:04:31;-7.60;99.90
14409;DHT22;7289;50.706;4.992;2022-12-18T01:07:00;-7.60;99.90
14409;DHT22;7289;50.706;4.992;2022-12-18T01:09:28;-7.60;99.90
14409;DHT22;7289;50.706;4.992;2022-12-18T01:11:56;-7.60;99.90
14409;DHT22;7289;50.706;4.992;2022-12-18T01:14:25;-7.60;99.90
14409;DHT22;7289;50.706;4.992;2022-12-18T01:16:53;-7.60;99.90
14409;DHT22;7289;50.706;4.992;2022-12-18T01:19:23;-7.70;99.90
14409;DHT22;7289;50.706;4.992;2022-12-18T01:21:51;-7.70;99.90
14409;DHT22;7289;50.706;4.992;2022-12-18T01:24:19;-7.70;99.90
14409;DHT22;7289;50.706;4.992;2022-12-18T01:26:48;-7.70;99.90
14409;DHT22;7289;50.706;4.992;2022-12-18T01:29:16;-7.70;99.90
14409;DHT22;7289;50.706;4.992;2022-12-18T01:31:45;-7.70;99.90
14409;DHT22;7289;50.706;4.992;2022-12-18T01:34:13;-7.80;99.90
14409;DHT22;7289;50.706;4.992;2022-12-18T01:36:43;-7.80;99.90
14409;DHT22;7289;50.706;4.992;2022-12-18T01:39:13;-7.80;99.90
14409;DHT22;7289;50.706;4.992;2022-12-18T01:41:42;-7.90;99.90
14409;DHT22;7289;50.706;4.992;2022-12-18T01:47:37;-7.90;99.90
14409;DHT22;7289;50.706;4.992;2022-12-18T01:50:08;-7.90;99.90
14409;DHT22;7289;50.706;4.992;2022-12-18T01:52:40;-8.00;99.90
14409;DHT22;7289;50.706;4.992;2022-12-18T01:55:12;-8.10;99.90
14409;DHT22;7289;50.706;4.992;2022-12-18T01:57:42;-8.10;99.90
14409;DHT22;7289;50.706;4.992;2022-12-18T02:00:14;-8.10;99.90
14409;DHT22;7289;50.706;4.992;2022-12-18T02:02:45;-8.10;99.90
14409;DHT22;7289;50.706;4.992;2022-12-18T02:05:16;-8.10;99.90
14409;DHT22;7289;50.706;4.992;2022-12-18T02:07:56;-8.10;99.90
14409;DHT22;7289;50.706;4.992;2022-12-18T02:10:33;-8.10;99.90
14409;DHT22;7289;50.706;4.992;2022-12-18T02:13:11;-8.20;99.90
14409;DHT22;7289;50.706;4.992;2022-12-18T02:15:44;-8.20;99.90
14409;DHT22;7289;50.706;4.992;2022-12-18T02:18:20;-8.20;99.90
14409;DHT22;7289;50.706;4.992;2022-12-18T02:20:54;-8.20;99.90
14409;DHT22;7289;50.706;4.992;2022-12-18T02:23:37;-8.30;99.90
14409;DHT22;7289;50.706;4.992;2022-12-18T02:26:16;-8.30;99.90
14409;DHT22;7289;50.706;4.992;2022-12-18T02:28:49;-8.20;99.90
14409;DHT22;7289;50.706;4.992;2022-12-18T02:31:21;-8.20;99.90
14409;DHT22;7289;50.706;4.992;2022-12-18T02:33:53;-8.30;99.90
14409;DHT22;7289;50.706;4.992;2022-12-18T02:36:24;-8.30;99.90
14409;DHT22;7289;50.706;4.992;2022-12-18T02:38:56;-8.30;99.90
14409;DHT22;7289;50.706;4.992;2022-12-18T02:41:28;-8.40;99.90
14409;DHT22;7289;50.706;4.992;2022-12-18T02:43:59;-8.50;99.90
14409;DHT22;7289;50.706;4.992;2022-12-18T02:46:33;-8.40;99.90
14409;DHT22;7289;50.706;4.992;2022-12-18T02:49:17;-8.50;99.90
14409;DHT22;7289;50.706;4.992;2022-12-18T02:51:52;-8.40;99.90
14409;DHT22;7289;50.706;4.992;2022-12-18T02:54:52;-8.40;99.90
14409;DHT22;7289;50.706;4.992;2022-12-18T02:57:33;-8.40;99.90
14409;DHT22;7289;50.706;4.992;2022-12-18T03:00:07;-8.50;99.90
14409;DHT22;7289;50.706;4.992;2022-12-18T03:02:41;-8.50;99.90
14409;DHT22;7289;50.706;4.992;2022-12-18T03:05:15;-8.50;99.90
14409;DHT22;7289;50.706;4.992;2022-12-18T03:07:53;-8.60;99.90
14409;DHT22;7289;50.706;4.992;2022-12-18T03:10:30;-8.60;99.90
14409;DHT22;7289;50.706;4.992;2022-12-18T03:13:06;-8.60;99.90
14409;DHT22;7289;50.706;4.992;2022-12-18T03:15:39;-8.60;99.90
14409;DHT22;7289;50.706;4.992;2022-12-18T03:18:14;-8.60;99.90
14409;DHT22;7289;50.706;4.992;2022-12-18T03:20:45;-8.60;99.90
14409;DHT22;7289;50.706;4.992;2022-12-18T03:23:22;-8.60;99.90
14409;DHT22;7289;50.706;4.992;2022-12-18T03:25:55;-8.70;99.90
14409;DHT22;7289;50.706;4.992;2022-12-18T03:28:39;-8.70;99.90
14409;DHT22;7289;50.706;4.992;2022-12-18T03:31:12;-8.70;99.90
14409;DHT22;7289;50.706;4.992;2022-12-18T03:33:45;-8.70;99.90
14409;DHT22;7289;50.706;4.992;2022-12-18T03:36:15;-8.70;99.90
14409;DHT22;7289;50.706;4.992;2022-12-18T03:38:43;-8.80;99.90
14409;DHT22;7289;50.706;4.992;2022-12-18T03:41:16;-8.80;99.90
14409;DHT22;7289;50.706;4.992;2022-12-18T03:44:11;-8.90;99.90
14409;DHT22;7289;50.706;4.992;2022-12-18T03:46:49;-8.80;99.90
14409;DHT22;7289;50.706;4.992;2022-12-18T03:49:26;-8.90;99.90
14409;DHT22;7289;50.706;4.992;2022-12-18T03:52:02;-8.90;99.90
14409;DHT22;7289;50.706;4.992;2022-12-18T03:54:33;-8.90;99.90
14409;DHT22;7289;50.706;4.992;2022-12-18T03:57:11;-8.90;99.90
14409;DHT22;7289;50.706;4.992;2022-12-18T03:59:43;-9.00;99.90
14409;DHT22;7289;50.706;4.992;2022-12-18T04:02:16;-9.00;99.90
14409;DHT22;7289;50.706;4.992;2022-12-18T04:04:46;-9.00;99.90
14409;DHT22;7289;50.706;4.992;2022-12-18T04:07:17;-8.90;99.90
14409;DHT22;7289;50.706;4.992;2022-12-18T04:09:48;-9.00;99.90
14409;DHT22;7289;50.706;4.992;2022-12-18T04:12:18;-9.00;99.90
14409;DHT22;7289;50.706;4.992;2022-12-18T04:14:49;-8.90;99.90
14409;DHT22;7289;50.706;4.992;2022-12-18T04:17:17;-8.90;99.90
14409;DHT22;7289;50.706;4.992;2022-12-18T04:19:47;-8.90;99.90
14409;DHT22;7289;50.706;4.992;2022-12-18T04:22:15;-9.00;99.90
14409;DHT22;7289;50.706;4.992;2022-12-18T04:24:47;-9.00;99.90
14409;DHT22;7289;50.706;4.992;2022-12-18T04:27:24;-9.00;99.90
14409;DHT22;7289;50.706;4.992;2022-12-18T04:29:54;-9.00;99.90
14409;DHT22;7289;50.706;4.992;2022-12-18T04:32:22;-9.00;99.90
14409;DHT22;7289;50.706;4.992;2022-12-18T04:34:50;-9.00;99.90
14409;DHT22;7289;50.706;4.992;2022-12-18T04:37:19;-9.00;99.90
14409;DHT22;7289;50.706;4.992;2022-12-18T04:39:49;-9.00;99.90
14409;DHT22;7289;50.706;4.992;2022-12-18T04:42:25;-9.00;99.90
14409;DHT22;7289;50.706;4.992;2022-12-18T04:44:54;-9.00;99.90
14409;DHT22;7289;50.706;4.992;2022-12-18T04:47:22;-9.00;99.90
14409;DHT22;7289;50.706;4.992;2022-12-18T04:49:51;-9.00;99.90
14409;DHT22;7289;50.706;4.992;2022-12-18T04:52:19;-9.00;99.90
14409;DHT22;7289;50.706;4.992;2022-12-18T04:54:49;-9.00;99.90
14409;DHT22;7289;50.706;4.992;2022-12-18T04:57:17;-9.00;99.90
14409;DHT22;7289;50.706;4.992;2022-12-18T04:59:45;-9.00;99.90
14409;DHT22;7289;50.706;4.992;2022-12-18T05:02:15;-9.10;99.90
14409;DHT22;7289;50.706;4.992;2022-12-18T05:04:43;-9.00;99.90
14409;DHT22;7289;50.706;4.992;2022-12-18T05:07:12;-9.00;99.90
14409;DHT22;7289;50.706;4.992;2022-12-18T05:09:40;-9.10;99.90
14409;DHT22;7289;50.706;4.992;2022-12-18T05:12:09;-9.10;99.90
14409;DHT22;7289;50.706;4.992;2022-12-18T05:14:37;-9.10;99.90
14409;DHT22;7289;50.706;4.992;2022-12-18T05:17:05;-9.10;99.90
14409;DHT22;7289;50.706;4.992;2022-12-18T05:19:34;-9.00;99.90
14409;DHT22;7289;50.706;4.992;2022-12-18T05:22:06;-9.10;99.90
14409;DHT22;7289;50.706;4.992;2022-12-18T05:24:35;-9.10;99.90
14409;DHT22;7289;50.706;4.992;2022-12-18T05:27:03;-9.10;99.90
14409;DHT22;7289;50.706;4.992;2022-12-18T05:29:31;-9.10;99.90
14409;DHT22;7289;50.706;4.992;2022-12-18T05:31:59;-9.00;99.90
14409;DHT22;7289;50.706;4.992;2022-12-18T05:34:27;-9.00;99.90
14409;DHT22;7289;50.706;4.992;2022-12-18T05:36:57;-9.00;99.90
14409;DHT22;7289;50.706;4.992;2022-12-18T05:39:25;-9.00;99.90
14409;DHT22;7289;50.706;4.992;2022-12-18T05:41:53;-9.10;99.90
14409;DHT22;7289;50.706;4.992;2022-12-18T05:44:22;-9.10;99.90
14409;DHT22;7289;50.706;4.992;2022-12-18T05:46:50;-9.10;99.90
14409;DHT22;7289;50.706;4.992;2022-12-18T05:49:18;-9.10;99.90
14409;DHT22;7289;50.706;4.992;2022-12-18T05:51:47;-9.00;99.90
14409;DHT22;7289;50.706;4.992;2022-12-18T05:54:16;-9.00;99.90
14409;DHT22;7289;50.706;4.992;2022-12-18T05:56:44;-9.00;99.90
14409;DHT22;7289;50.706;4.992;2022-12-18T05:59:15;-9.00;99.90
14409;DHT22;7289;50.706;4.992;2022-12-18T06:01:43;-9.00;99.90
14409;DHT22;7289;50.706;4.992;2022-12-18T06:04:11;-9.00;99.90
14409;DHT22;7289;50.706;4.992;2022-12-18T06:06:40;-9.00;99.90
14409;DHT22;7289;50.706;4.992;2022-12-18T06:09:08;-9.00;99.90
14409;DHT22;7289;50.706;4.992;2022-12-18T06:11:38;-9.00;99.90
14409;DHT22;7289;50.706;4.992;2022-12-18T06:14:08;-9.00;99.90
14409;DHT22;7289;50.706;4.992;2022-12-18T06:16:37;-9.00;99.90
14409;DHT22;7289;50.706;4.992;2022-12-18T06:19:05;-9.10;99.90
14409;DHT22;7289;50.706;4.992;2022-12-18T06:21:34;-9.10;99.90
14409;DHT22;7289;50.706;4.992;2022-12-18T06:24:02;-9.10;99.90
14409;DHT22;7289;50.706;4.992;2022-12-18T06:26:30;-9.20;99.90
14409;DHT22;7289;50.706;4.992;2022-12-18T06:29:00;-9.10;99.90
14409;DHT22;7289;50.706;4.992;2022-12-18T06:31:28;-9.10;99.90
14409;DHT22;7289;50.706;4.992;2022-12-18T06:33:57;-9.10;99.90
14409;DHT22;7289;50.706;4.992;2022-12-18T06:36:25;-9.10;99.90
14409;DHT22;7289;50.706;4.992;2022-12-18T06:38:53;-9.10;99.90
14409;DHT22;7289;50.706;4.992;2022-12-18T06:41:21;-9.10;99.90
14409;DHT22;7289;50.706;4.992;2022-12-18T06:43:50;-9.10;99.90
14409;DHT22;7289;50.706;4.992;2022-12-18T06:46:25;-9.00;99.90
14409;DHT22;7289;50.706;4.992;2022-12-18T06:48:53;-9.00;99.90
14409;DHT22;7289;50.706;4.992;2022-12-18T06:51:23;-9.00;99.90
14409;DHT22;7289;50.706;4.992;2022-12-18T06:53:51;-9.00;99.90
14409;DHT22;7289;50.706;4.992;2022-12-18T06:56:19;-9.10;99.90
14409;DHT22;7289;50.706;4.992;2022-12-18T06:58:48;-9.10;99.90
14409;DHT22;7289;50.706;4.992;2022-12-18T07:01:16;-9.10;99.90
14409;DHT22;7289;50.706;4.992;2022-12-18T07:03:46;-9.10;99.90
14409;DHT22;7289;50.706;4.992;2022-12-18T07:06:16;-9.10;99.90
14409;DHT22;7289;50.706;4.992;2022-12-18T07:08:44;-9.10;99.90
14409;DHT22;7289;50.706;4.992;2022-12-18T07:11:13;-9.00;99.90
14409;DHT22;7289;50.706;4.992;2022-12-18T07:13:42;-9.00;99.90
14409;DHT22;7289;50.706;4.992;2022-12-18T07:16:12;-9.00;99.90
14409;DHT22;7289;50.706;4.992;2022-12-18T07:18:51;-8.90;99.90
14409;DHT22;7289;50.706;4.992;2022-12-18T07:21:20;-8.90;99.90
14409;DHT22;7289;50.706;4.992;2022-12-18T07:23:48;-8.90;99.90
14409;DHT22;7289;50.706;4.992;2022-12-18T07:26:18;-8.80;99.90
14409;DHT22;7289;50.706;4.992;2022-12-18T07:28:47;-8.80;99.90
14409;DHT22;7289;50.706;4.992;2022-12-18T07:31:18;-8.80;99.90
14409;DHT22;7289;50.706;4.992;2022-12-18T07:33:48;-8.70;99.90
14409;DHT22;7289;50.706;4.992;2022-12-18T07:36:18;-8.70;99.90
14409;DHT22;7289;50.706;4.992;2022-12-18T07:38:47;-8.60;99.90
14409;DHT22;7289;50.706;4.992;2022-12-18T07:41:16;-8.60;99.90
14409;DHT22;7289;50.706;4.992;2022-12-18T07:43:46;-8.50;99.90
14409;DHT22;7289;50.706;4.992;2022-12-18T07:46:15;-8.50;99.90
14409;DHT22;7289;50.706;4.992;2022-12-18T07:48:44;-8.40;99.90
14409;DHT22;7289;50.706;4.992;2022-12-18T07:51:17;-8.40;99.90
14409;DHT22;7289;50.706;4.992;2022-12-18T07:53:46;-8.40;99.90
14409;DHT22;7289;50.706;4.992;2022-12-18T07:56:18;-8.40;99.90
14409;DHT22;7289;50.706;4.992;2022-12-18T07:58:56;-8.40;99.90
14409;DHT22;7289;50.706;4.992;2022-12-18T08:01:25;-8.40;99.90
14409;DHT22;7289;50.706;4.992;2022-12-18T08:03:53;-8.40;99.90
14409;DHT22;7289;50.706;4.992;2022-12-18T08:06:23;-8.40;99.90
14409;DHT22;7289;50.706;4.992;2022-12-18T08:08:52;-8.30;99.90
14409;DHT22;7289;50.706;4.992;2022-12-18T08:11:22;-8.30;99.90
14409;DHT22;7289;50.706;4.992;2022-12-18T08:13:50;-8.30;99.90
14409;DHT22;7289;50.706;4.992;2022-12-18T08:16:19;-8.20;99.90
14409;DHT22;7289;50.706;4.992;2022-12-18T08:18:48;-8.20;99.90
14409;DHT22;7289;50.706;4.992;2022-12-18T08:21:18;-8.10;99.90
14409;DHT22;7289;50.706;4.992;2022-12-18T08:23:49;-8.10;99.90
14409;DHT22;7289;50.706;4.992;2022-12-18T08:26:18;-7.90;99.90
14409;DHT22;7289;50.706;4.992;2022-12-18T08:28:48;-7.90;99.90
14409;DHT22;7289;50.706;4.992;2022-12-18T08:31:17;-7.70;99.90
14409;DHT22;7289;50.706;4.992;2022-12-18T08:33:48;-7.70;99.90
14409;DHT22;7289;50.706;4.992;2022-12-18T08:36:16;-7.60;99.90
14409;DHT22;7289;50.706;4.992;2022-12-18T08:38:45;-7.50;99.90
14409;DHT22;7289;50.706;4.992;2022-12-18T08:41:16;-7.40;99.90
14409;DHT22;7289;50.706;4.992;2022-12-18T08:43:44;-7.20;99.90
14409;DHT22;7289;50.706;4.992;2022-12-18T08:46:34;-7.10;99.90
14409;DHT22;7289;50.706;4.992;2022-12-18T08:49:03;-6.90;99.90
14409;DHT22;7289;50.706;4.992;2022-12-18T08:51:32;-6.80;99.90
14409;DHT22;7289;50.706;4.992;2022-12-18T08:54:00;-6.70;99.90
14409;DHT22;7289;50.706;4.992;2022-12-18T08:56:32;-6.50;99.90
14409;DHT22;7289;50.706;4.992;2022-12-18T08:59:01;-6.30;99.90
14409;DHT22;7289;50.706;4.992;2022-12-18T09:01:30;-6.20;99.90
14409;DHT22;7289;50.706;4.992;2022-12-18T09:03:59;-6.10;99.90
14409;DHT22;7289;50.706;4.992;2022-12-18T09:06:27;-5.90;99.90
14409;DHT22;7289;50.706;4.992;2022-12-18T09:08:57;-5.80;99.90
14409;DHT22;7289;50.706;4.992;2022-12-18T09:11:27;-5.70;99.90
14409;DHT22;7289;50.706;4.992;2022-12-18T09:13:58;-5.50;99.90
14409;DHT22;7289;50.706;4.992;2022-12-18T09:16:27;-5.40;99.90
14409;DHT22;7289;50.706;4.992;2022-12-18T09:18:59;-5.20;99.90
14409;DHT22;7289;50.706;4.992;2022-12-18T09:21:29;-5.10;99.90
14409;DHT22;7289;50.706;4.992;2022-12-18T09:24:00;-5.00;99.90
14409;DHT22;7289;50.706;4.992;2022-12-18T09:26:29;-4.80;99.90
14409;DHT22;7289;50.706;4.992;2022-12-18T09:28:59;-4.70;99.90
14409;DHT22;7289;50.706;4.992;2022-12-18T09:31:27;-4.50;99.90
14409;DHT22;7289;50.706;4.992;2022-12-18T09:33:55;-4.40;99.90
14409;DHT22;7289;50.706;4.992;2022-12-18T09:36:23;-4.20;99.90
14409;DHT22;7289;50.706;4.992;2022-12-18T09:38:52;-4.10;99.90
14409;DHT22;7289;50.706;4.992;2022-12-18T09:41:42;-4.00;99.90
14409;DHT22;7289;50.706;4.992;2022-12-18T09:44:20;-3.80;99.90
14409;DHT22;7289;50.706;4.992;2022-12-18T09:46:56;-3.60;99.90
14409;DHT22;7289;50.706;4.992;2022-12-18T09:49:28;-3.40;99.90
14409;DHT22;7289;50.706;4.992;2022-12-18T09:52:02;-3.20;99.90
14409;DHT22;7289;50.706;4.992;2022-12-18T09:54:33;-3.10;99.90
14409;DHT22;7289;50.706;4.992;2022-12-18T09:57:04;-2.90;99.90
14409;DHT22;7289;50.706;4.992;2022-12-18T09:59:36;-2.70;99.90
14409;DHT22;7289;50.706;4.992;2022-12-18T10:02:15;-2.60;99.90
14409;DHT22;7289;50.706;4.992;2022-12-18T10:04:49;-2.40;99.90
14409;DHT22;7289;50.706;4.992;2022-12-18T10:07:24;-2.20;99.90
14409;DHT22;7289;50.706;4.992;2022-12-18T10:10:00;-2.00;99.90
14409;DHT22;7289;50.706;4.992;2022-12-18T10:12:34;-1.90;99.90
14409;DHT22;7289;50.706;4.992;2022-12-18T10:15:12;-1.70;99.90
14409;DHT22;7289;50.706;4.992;2022-12-18T10:17:45;-1.50;99.90
14409;DHT22;7289;50.706;4.992;2022-12-18T10:20:20;-1.40;99.90
14409;DHT22;7289;50.706;4.992;2022-12-18T10:22:56;-1.30;99.90
14409;DHT22;7289;50.706;4.992;2022-12-18T10:25:30;-1.10;99.90
14409;DHT22;7289;50.706;4.992;2022-12-18T10:28:09;-1.00;99.90
14409;DHT22;7289;50.706;4.992;2022-12-18T10:30:40;-0.90;99.90
14409;DHT22;7289;50.706;4.992;2022-12-18T10:33:11;-0.70;99.90
14409;DHT22;7289;50.706;4.992;2022-12-18T10:35:42;-0.70;99.90
14409;DHT22;7289;50.706;4.992;2022-12-18T10:38:22;-0.60;99.90
14409;DHT22;7289;50.706;4.992;2022-12-18T10:40:53;-0.40;99.90
14409;DHT22;7289;50.706;4.992;2022-12-18T10:43:25;-0.30;99.90
14409;DHT22;7289;50.706;4.992;2022-12-18T10:46:01;-0.30;99.90
14409;DHT22;7289;50.706;4.992;2022-12-18T10:48:31;-0.20;99.90
14409;DHT22;7289;50.706;4.992;2022-12-18T10:51:00;0.00;99.90
14409;DHT22;7289;50.706;4.992;2022-12-18T10:53:40;0.00;99.90
14409;DHT22;7289;50.706;4.992;2022-12-18T10:56:10;0.00;99.90
14409;DHT22;7289;50.706;4.992;2022-12-18T10:58:39;0.20;99.90
14409;DHT22;7289;50.706;4.992;2022-12-18T11:01:12;0.20;99.90
14409;DHT22;7289;50.706;4.992;2022-12-18T11:03:42;0.30;99.90
14409;DHT22;7289;50.706;4.992;2022-12-18T11:06:12;0.40;99.90
14409;DHT22;7289;50.706;4.992;2022-12-18T11:08:43;0.40;99.90
14409;DHT22;7289;50.706;4.992;2022-12-18T11:11:20;0.50;99.90
14409;DHT22;7289;50.706;4.992;2022-12-18T11:13:58;0.60;99.90
14409;DHT22;7289;50.706;4.992;2022-12-18T11:16:30;0.70;99.90
14409;DHT22;7289;50.706;4.992;2022-12-18T11:19:20;0.70;99.90
14409;DHT22;7289;50.706;4.992;2022-12-18T11:21:51;0.70;99.90
14409;DHT22;7289;50.706;4.992;2022-12-18T11:24:24;0.80;99.90
14409;DHT22;7289;50.706;4.992;2022-12-18T11:26:55;0.90;99.90
14409;DHT22;7289;50.706;4.992;2022-12-18T11:29:33;0.80;99.90
14409;DHT22;7289;50.706;4.992;2022-12-18T11:32:27;1.00;99.90
14409;DHT22;7289;50.706;4.992;2022-12-18T11:35:03;1.00;99.90
14409;DHT22;7289;50.706;4.992;2022-12-18T11:37:33;1.10;99.90
14409;DHT22;7289;50.706;4.992;2022-12-18T11:40:05;1.20;99.90
14409;DHT22;7289;50.706;4.992;2022-12-18T11:42:39;1.40;99.90
14409;DHT22;7289;50.706;4.992;2022-12-18T11:45:23;1.40;99.90
14409;DHT22;7289;50.706;4.992;2022-12-18T11:47:57;1.50;99.90
14409;DHT22;7289;50.706;4.992;2022-12-18T11:50:46;1.60;99.90
14409;DHT22;7289;50.706;4.992;2022-12-18T11:53:16;1.60;99.90
14409;DHT22;7289;50.706;4.992;2022-12-18T11:55:53;1.60;99.90
14409;DHT22;7289;50.706;4.992;2022-12-18T11:58:32;1.70;99.90
14409;DHT22;7289;50.706;4.992;2022-12-18T12:01:09;1.80;99.90
14409;DHT22;7289;50.706;4.992;2022-12-18T12:04:10;1.70;99.90
14409;DHT22;7289;50.706;4.992;2022-12-18T12:06:49;1.80;99.90
14409;DHT22;7289;50.706;4.992;2022-12-18T12:09:33;1.90;99.90
14409;DHT22;7289;50.706;4.992;2022-12-18T12:12:23;1.90;99.90
14409;DHT22;7289;50.706;4.992;2022-12-18T12:15:00;1.90;99.90
14409;DHT22;7289;50.706;4.992;2022-12-18T12:17:36;2.00;99.90
14409;DHT22;7289;50.706;4.992;2022-12-18T12:20:13;1.90;99.90
14409;DHT22;7289;50.706;4.992;2022-12-18T12:22:46;1.90;99.90
14409;DHT22;7289;50.706;4.992;2022-12-18T12:25:26;2.10;99.90
14409;DHT22;7289;50.706;4.992;2022-12-18T12:28:05;2.20;99.90
14409;DHT22;7289;50.706;4.992;2022-12-18T12:30:46;2.30;99.90
14409;DHT22;7289;50.706;4.992;2022-12-18T12:33:28;2.30;99.90
14409;DHT22;7289;50.706;4.992;2022-12-18T12:36:04;2.40;99.90
14409;DHT22;7289;50.706;4.992;2022-12-18T12:38:37;2.50;99.90
14409;DHT22;7289;50.706;4.992;2022-12-18T12:41:20;2.50;99.90
14409;DHT22;7289;50.706;4.992;2022-12-18T12:44:09;2.60;99.90
14409;DHT22;7289;50.706;4.992;2022-12-18T12:46:41;2.70;99.90
14409;DHT22;7289;50.706;4.992;2022-12-18T12:49:15;2.70;99.90
14409;DHT22;7289;50.706;4.992;2022-12-18T12:51:49;2.60;99.90
14409;DHT22;7289;50.706;4.992;2022-12-18T12:54:23;2.80;99.90
14409;DHT22;7289;50.706;4.992;2022-12-18T12:56:59;2.70;99.90
14409;DHT22;7289;50.706;4.992;2022-12-18T12:59:33;2.80;99.90
14409;DHT22;7289;50.706;4.992;2022-12-18T13:02:11;2.90;99.90
14409;DHT22;7289;50.706;4.992;2022-12-18T13:04:47;3.00;99.90
14409;DHT22;7289;50.706;4.992;2022-12-18T13:07:23;2.90;99.90
14409;DHT22;7289;50.706;4.992;2022-12-18T13:10:19;2.90;99.90
14409;DHT22;7289;50.706;4.992;2022-12-18T13:12:54;2.80;99.90
14409;DHT22;7289;50.706;4.992;2022-12-18T13:15:37;2.60;99.90
14409;DHT22;7289;50.706;4.992;2022-12-18T13:18:17;2.60;99.90
14409;DHT22;7289;50.706;4.992;2022-12-18T13:20:49;2.50;99.90
14409;DHT22;7289;50.706;4.992;2022-12-18T13:23:33;2.50;99.90
14409;DHT22;7289;50.706;4.992;2022-12-18T13:26:30;2.40;99.90
14409;DHT22;7289;50.706;4.992;2022-12-18T13:29:00;2.40;99.90
14409;DHT22;7289;50.706;4.992;2022-12-18T13:34:36;2.30;99.90
14409;DHT22;7289;50.706;4.992;2022-12-18T13:37:38;2.30;99.90
14409;DHT22;7289;50.706;4.992;2022-12-18T13:43:33;2.10;99.90
14409;DHT22;7289;50.706;4.992;2022-12-18T13:46:21;2.10;99.90
14409;DHT22;7289;50.706;4.992;2022-12-18T13:48:53;2.10;99.90
14409;DHT22;7289;50.706;4.992;2022-12-18T13:51:23;2.20;99.90
14409;DHT22;7289;50.706;4.992;2022-12-18T13:53:54;2.10;99.90
14409;DHT22;7289;50.706;4.992;2022-12-18T13:56:26;2.10;99.90
14409;DHT22;7289;50.706;4.992;2022-12-18T13:59:16;2.10;99.90
14409;DHT22;7289;50.706;4.992;2022-12-18T14:01:52;2.10;99.90
14409;DHT22;7289;50.706;4.992;2022-12-18T14:04:27;2.10;99.90
14409;DHT22;7289;50.706;4.992;2022-12-18T14:06:58;2.00;99.90
14409;DHT22;7289;50.706;4.992;2022-12-18T14:09:31;2.00;99.90
14409;DHT22;7289;50.706;4.992;2022-12-18T14:12:03;2.00;99.90
14409;DHT22;7289;50.706;4.992;2022-12-18T14:14:52;2.10;99.90
14409;DHT22;7289;50.706;4.992;2022-12-18T14:17:22;2.10;99.90
14409;DHT22;7289;50.706;4.992;2022-12-18T14:19:51;2.00;99.90
14409;DHT22;7289;50.706;4.992;2022-12-18T14:22:21;2.10;99.90
14409;DHT22;7289;50.706;4.992;2022-12-18T14:25:13;2.10;99.90
14409;DHT22;7289;50.706;4.992;2022-12-18T14:27:43;2.00;99.90
14409;DHT22;7289;50.706;4.992;2022-12-18T14:30:36;2.00;99.90
14409;DHT22;7289;50.706;4.992;2022-12-18T14:33:09;1.90;99.90
14409;DHT22;7289;50.706;4.992;2022-12-18T14:35:39;1.80;99.90
14409;DHT22;7289;50.706;4.992;2022-12-18T14:38:20;1.70;99.90
14409;DHT22;7289;50.706;4.992;2022-12-18T14:40:53;1.70;99.90
14409;DHT22;7289;50.706;4.992;2022-12-18T14:43:21;1.70;99.90
14409;DHT22;7289;50.706;4.992;2022-12-18T14:45:52;1.70;99.90
14409;DHT22;7289;50.706;4.992;2022-12-18T14:48:22;1.80;99.90
14409;DHT22;7289;50.706;4.992;2022-12-18T14:50:58;1.60;99.90
14409;DHT22;7289;50.706;4.992;2022-12-18T14:53:38;1.70;99.90
14409;DHT22;7289;50.706;4.992;2022-12-18T14:56:18;1.60;99.90
14409;DHT22;7289;50.706;4.992;2022-12-18T14:58:48;1.70;99.90
14409;DHT22;7289;50.706;4.992;2022-12-18T15:01:25;1.70;99.90
14409;DHT22;7289;50.706;4.992;2022-12-18T15:03:55;1.70;99.90
14409;DHT22;7289;50.706;4.992;2022-12-18T15:06:32;1.70;99.90
14409;DHT22;7289;50.706;4.992;2022-12-18T15:09:04;1.70;99.90
14409;DHT22;7289;50.706;4.992;2022-12-18T15:11:42;1.60;99.90
14409;DHT22;7289;50.706;4.992;2022-12-18T15:14:31;1.60;99.90
14409;DHT22;7289;50.706;4.992;2022-12-18T15:17:03;1.60;99.90
14409;DHT22;7289;50.706;4.992;2022-12-18T15:19:35;1.50;99.90
14409;DHT22;7289;50.706;4.992;2022-12-18T15:22:18;1.60;99.90
14409;DHT22;7289;50.706;4.992;2022-12-18T15:24:48;1.50;99.90
14409;DHT22;7289;50.706;4.992;2022-12-18T15:27:23;1.40;99.90
14409;DHT22;7289;50.706;4.992;2022-12-18T15:30:19;1.50;99.90
14409;DHT22;7289;50.706;4.992;2022-12-18T15:32:50;1.50;99.90
14409;DHT22;7289;50.706;4.992;2022-12-18T15:35:21;1.40;99.90
14409;DHT22;7289;50.706;4.992;2022-12-18T15:37:50;1.40;99.90
14409;DHT22;7289;50.706;4.992;2022-12-18T15:40:20;1.40;99.90
14409;DHT22;7289;50.706;4.992;2022-12-18T15:42:50;1.40;99.90
14409;DHT22;7289;50.706;4.992;2022-12-18T15:45:36;1.40;99.90
14409;DHT22;7289;50.706;4.992;2022-12-18T15:48:15;1.40;99.90
14409;DHT22;7289;50.706;4.992;2022-12-18T15:50:45;1.40;99.90
14409;DHT22;7289;50.706;4.992;2022-12-18T15:53:13;1.40;99.90
14409;DHT22;7289;50.706;4.992;2022-12-18T15:55:41;1.40;99.90
14409;DHT22;7289;50.706;4.992;2022-12-18T15:58:27;1.40;99.90
14409;DHT22;7289;50.706;4.992;2022-12-18T16:00:57;1.40;99.90
14409;DHT22;7289;50.706;4.992;2022-12-18T16:03:27;1.40;99.90
14409;DHT22;7289;50.706;4.992;2022-12-18T16:05:56;1.30;99.90
14409;DHT22;7289;50.706;4.992;2022-12-18T16:08:28;1.30;99.90
14409;DHT22;7289;50.706;4.992;2022-12-18T16:10:57;1.40;99.90
14409;DHT22;7289;50.706;4.992;2022-12-18T16:13:25;1.20;99.90
14409;DHT22;7289;50.706;4.992;2022-12-18T16:15:54;1.30;99.90
14409;DHT22;7289;50.706;4.992;2022-12-18T16:18:22;1.30;99.90
14409;DHT22;7289;50.706;4.992;2022-12-18T16:20:52;1.30;99.90
14409;DHT22;7289;50.706;4.992;2022-12-18T16:23:20;1.40;99.90
14409;DHT22;7289;50.706;4.992;2022-12-18T16:25:48;1.30;99.90
14409;DHT22;7289;50.706;4.992;2022-12-18T16:28:16;1.30;99.90
14409;DHT22;7289;50.706;4.992;2022-12-18T16:30:45;1.30;99.90
14409;DHT22;7289;50.706;4.992;2022-12-18T16:33:13;1.30;99.90
14409;DHT22;7289;50.706;4.992;2022-12-18T16:35:42;1.30;99.90
14409;DHT22;7289;50.706;4.992;2022-12-18T16:38:12;1.20;99.90